Time;durP1;ratioP1;P1;durP2;ratioP2;P2;SDS_P1;SDS_P2;PMS_P1;PMS_P2;Temp;Humidity;BMP_temperature;BMP_pressure;BME280_temperature;BME280_humidity;BME280_pressure;Samples;Min_cycle;Max_cycle;Signal;HPM_P1;HPM_P2
2021/10/23 00:00:05;;;;;;;6.60;2.30;;;9.00;99.90;;;;;;5020598;28;20442;-74
2021/10/23 00:02:31;;;;;;;5.35;1.52;;;8.90;99.90;;;;;;5009568;28;20577;-74
2021/10/23 00:04:57;;;;;;;4.40;1.38;;;9.00;99.90;;;;;;5017723;28;20065;-75
2021/10/23 00:07:22;;;;;;;5.15;1.42;;;9.00;99.90;;;;;;5020206;28;20057;-75
2021/10/23 00:09:48;;;;;;;6.10;1.40;;;9.00;99.90;;;;;;5018013;28;20026;-74
2021/10/23 00:12:13;;;;;;;4.78;1.55;;;9.00;99.90;;;;;;5019615;28;20056;-74
2021/10/23 00:14:39;;;;;;;5.30;1.30;;;9.00;99.90;;;;;;5020463;28;20041;-74
2021/10/23 00:17:04;;;;;;;4.78;1.75;;;9.00;99.90;;;;;;5022064;28;20081;-74
2021/10/23 00:19:30;;;;;;;4.75;1.38;;;9.00;99.90;;;;;;5021747;28;20022;-75
2021/10/23 00:21:56;;;;;;;4.22;1.30;;;9.00;99.90;;;;;;5021803;28;20030;-75
2021/10/23 00:24:21;;;;;;;2.75;1.60;;;9.00;99.90;;;;;;5020387;28;20044;-75
2021/10/23 00:26:47;;;;;;;4.95;1.67;;;9.00;99.90;;;;;;5019514;28;20082;-73
2021/10/23 00:29:12;;;;;;;4.00;1.73;;;8.90;99.90;;;;;;5024444;28;20445;-74
2021/10/23 00:31:38;;;;;;;6.28;1.40;;;8.90;99.90;;;;;;5036985;28;20049;-75
2021/10/23 00:34:04;;;;;;;3.33;1.42;;;8.90;99.90;;;;;;5018597;28;20025;-73
2021/10/23 00:36:29;;;;;;;3.72;1.58;;;8.90;99.90;;;;;;5016933;28;20033;-76
2021/10/23 00:38:55;;;;;;;3.92;1.58;;;8.90;99.90;;;;;;5019728;28;20029;-75
2021/10/23 00:41:20;;;;;;;4.32;2.70;;;8.90;99.90;;;;;;5017686;28;20120;-74
2021/10/23 00:43:47;;;;;;;9.30;2.30;;;8.90;99.90;;;;;;5017723;28;20022;-75
2021/10/23 00:46:14;;;;;;;4.68;1.75;;;8.90;99.90;;;;;;5022561;28;20087;-74
2021/10/23 00:48:40;;;;;;;6.22;1.80;;;8.90;99.90;;;;;;4997719;28;20506;-76
2021/10/23 00:51:07;;;;;;;4.55;1.10;;;8.90;99.90;;;;;;4997135;28;20030;-74
2021/10/23 00:53:33;;;;;;;3.08;1.42;;;8.90;99.90;;;;;;4995919;28;20038;-74
2021/10/23 00:55:59;;;;;;;5.13;1.70;;;8.90;99.90;;;;;;4978305;28;20490;-76
2021/10/23 00:58:24;;;;;;;4.63;1.92;;;8.90;99.90;;;;;;4997992;28;20086;-75
2021/10/23 01:00:50;;;;;;;5.43;1.63;;;8.90;99.90;;;;;;5004086;28;20117;-75
2021/10/23 01:03:15;;;;;;;4.18;1.40;;;8.90;99.90;;;;;;5036273;28;20041;-74
2021/10/23 01:05:42;;;;;;;8.23;1.38;;;8.90;99.90;;;;;;5032573;28;20029;-74
2021/10/23 01:08:07;;;;;;;5.20;1.27;;;8.90;99.90;;;;;;5027440;28;20105;-75
2021/10/23 01:10:33;;;;;;;3.28;1.27;;;8.90;99.90;;;;;;5021348;28;20059;-75
2021/10/23 01:12:59;;;;;;;7.57;2.00;;;8.90;99.90;;;;;;5016320;28;20064;-75
2021/10/23 01:15:27;;;;;;;2.45;1.50;;;8.90;99.90;;;;;;5016615;28;20037;-75
2021/10/23 01:17:54;;;;;;;7.22;2.03;;;8.90;99.90;;;;;;5015272;28;20125;-75
2021/10/23 01:20:21;;;;;;;4.03;1.33;;;8.80;99.90;;;;;;5015198;28;20022;-75
2021/10/23 01:22:49;;;;;;;3.13;1.00;;;8.80;99.90;;;;;;5014550;28;20401;-74
2021/10/23 01:25:15;;;;;;;3.22;1.23;;;8.80;99.90;;;;;;5014137;28;20022;-74
2021/10/23 01:27:41;;;;;;;6.90;1.60;;;8.70;99.90;;;;;;4997064;28;20081;-75
2021/10/23 01:30:09;;;;;;;6.03;1.52;;;8.70;99.90;;;;;;5014904;28;20056;-75
2021/10/23 01:32:36;;;;;;;5.68;2.10;;;8.60;99.90;;;;;;5013209;28;20025;-74
2021/10/23 01:35:02;;;;;;;5.72;1.25;;;8.60;99.90;;;;;;5013513;28;20030;-74
2021/10/23 01:37:41;;;;;;;2.95;1.48;;;8.50;99.90;;;;;;5016303;28;20046;-75
2021/10/23 01:40:10;;;;;;;4.78;2.10;;;8.40;99.90;;;;;;5016120;28;20026;-75
2021/10/23 01:42:36;;;;;;;4.07;1.30;;;8.40;99.90;;;;;;5015733;28;20014;-73
2021/10/23 01:45:02;;;;;;;7.88;1.55;;;8.40;99.90;;;;;;5017160;28;20026;-75
2021/10/23 01:47:28;;;;;;;4.47;1.80;;;8.30;99.90;;;;;;5014538;28;20022;-75
2021/10/23 01:49:53;;;;;;;6.32;2.22;;;8.20;99.90;;;;;;5015782;28;20041;-74
2021/10/23 01:52:19;;;;;;;4.68;1.48;;;8.20;99.90;;;;;;5013525;28;20041;-74
2021/10/23 01:54:44;;;;;;;5.53;1.42;;;8.10;99.90;;;;;;5012985;28;20018;-74
2021/10/23 01:57:10;;;;;;;4.30;1.48;;;8.10;99.90;;;;;;5012327;28;20038;-75
2021/10/23 01:59:36;;;;;;;3.25;1.35;;;8.10;99.90;;;;;;5012588;28;20037;-74
2021/10/23 02:02:02;;;;;;;6.32;1.85;;;8.10;99.90;;;;;;5012984;28;20030;-75
2021/10/23 02:04:28;;;;;;;7.22;1.60;;;8.10;99.90;;;;;;5013296;28;20025;-73
2021/10/23 02:06:54;;;;;;;7.40;1.98;;;8.00;99.90;;;;;;5016911;28;20088;-77
2021/10/23 02:09:19;;;;;;;8.38;1.92;;;8.00;99.90;;;;;;5021871;28;20041;-76
2021/10/23 02:11:45;;;;;;;5.32;1.70;;;7.90;99.90;;;;;;5013023;28;20120;-76
2021/10/23 02:14:10;;;;;;;4.20;1.50;;;7.90;99.90;;;;;;5012972;28;20037;-74
2021/10/23 02:16:37;;;;;;;3.25;1.42;;;8.00;99.90;;;;;;5013473;28;20054;-75
2021/10/23 02:19:02;;;;;;;2.80;1.55;;;8.00;99.90;;;;;;5014366;28;20034;-75
2021/10/23 02:21:28;;;;;;;3.25;1.40;;;8.00;99.90;;;;;;5015154;28;20049;-75
2021/10/23 02:23:54;;;;;;;5.10;1.55;;;8.00;99.90;;;;;;5001326;28;20064;-76
2021/10/23 02:26:19;;;;;;;3.70;1.35;;;8.00;99.90;;;;;;5002321;28;20045;-75
2021/10/23 02:28:45;;;;;;;7.60;1.40;;;8.10;99.90;;;;;;5017629;28;20386;-74
2021/10/23 02:31:10;;;;;;;5.53;1.95;;;8.10;99.90;;;;;;5014946;28;20030;-73
2021/10/23 02:33:36;;;;;;;6.10;2.78;;;8.20;99.90;;;;;;5020326;28;20036;-75
2021/10/23 02:36:02;;;;;;;5.10;1.75;;;8.20;99.90;;;;;;5032822;28;20030;-73
2021/10/23 02:38:28;;;;;;;4.65;1.63;;;8.20;99.90;;;;;;5025220;28;20036;-75
2021/10/23 02:40:56;;;;;;;5.78;1.40;;;8.20;99.90;;;;;;4998748;28;20089;-74
2021/10/23 02:43:21;;;;;;;2.35;1.35;;;8.20;99.90;;;;;;5001579;28;20107;-74
2021/10/23 02:45:47;;;;;;;7.57;1.77;;;8.20;99.90;;;;;;5017834;28;20026;-75
2021/10/23 02:48:13;;;;;;;6.10;1.70;;;8.20;99.90;;;;;;5016586;28;20030;-74
2021/10/23 02:50:38;;;;;;;6.22;1.40;;;8.20;99.90;;;;;;5017914;28;20030;-75
2021/10/23 02:53:04;;;;;;;7.80;2.55;;;8.20;99.90;;;;;;4984217;28;1038599;-75
2021/10/23 02:55:30;;;;;;;6.70;1.35;;;8.20;99.90;;;;;;5026515;28;20040;-74
2021/10/23 02:57:56;;;;;;;4.97;1.98;;;8.20;99.90;;;;;;5024852;28;20053;-75
2021/10/23 03:00:22;;;;;;;4.15;1.45;;;8.20;99.90;;;;;;5025396;28;20029;-75
2021/10/23 03:02:48;;;;;;;7.47;1.80;;;8.20;99.90;;;;;;5008685;28;20037;-74
2021/10/23 03:05:14;;;;;;;3.47;1.60;;;8.20;99.90;;;;;;5025670;28;20041;-74
2021/10/23 03:07:39;;;;;;;4.97;2.05;;;8.20;99.90;;;;;;5025652;28;20018;-74
2021/10/23 03:10:05;;;;;;;7.47;2.15;;;8.20;99.90;;;;;;5023252;28;20026;-74
2021/10/23 03:12:31;;;;;;;4.38;1.80;;;8.30;99.90;;;;;;5006643;28;20030;-75
2021/10/23 03:14:56;;;;;;;6.38;2.33;;;8.30;99.90;;;;;;5007008;28;20026;-75
2021/10/23 03:17:22;;;;;;;5.47;2.00;;;8.30;99.90;;;;;;5006322;28;20052;-75
2021/10/23 03:19:48;;;;;;;8.90;1.83;;;8.30;99.90;;;;;;5023025;28;20030;-74
2021/10/23 03:22:13;;;;;;;5.82;2.05;;;8.30;99.90;;;;;;5023659;28;20120;-73
2021/10/23 03:24:39;;;;;;;2.30;1.65;;;8.30;99.90;;;;;;5020882;28;20116;-74
2021/10/23 03:27:04;;;;;;;3.97;2.15;;;8.30;99.90;;;;;;5021307;28;20030;-75
2021/10/23 03:29:30;;;;;;;6.10;1.95;;;8.30;99.90;;;;;;5020701;28;20034;-75
2021/10/23 03:31:56;;;;;;;6.40;1.80;;;8.30;99.90;;;;;;5023091;28;20470;-75
2021/10/23 03:34:21;;;;;;;3.60;1.73;;;8.30;99.90;;;;;;5023822;28;20474;-75
2021/10/23 03:36:47;;;;;;;3.05;1.90;;;8.40;99.90;;;;;;5022552;28;20303;-73
2021/10/23 03:39:12;;;;;;;4.20;1.70;;;8.50;99.90;;;;;;5022008;28;20029;-74
2021/10/23 03:41:40;;;;;;;4.78;1.88;;;8.40;99.90;;;;;;5022899;28;20393;-73
2021/10/23 03:44:06;;;;;;;5.25;2.03;;;8.40;99.90;;;;;;5023220;28;20036;-73
2021/10/23 03:46:32;;;;;;;5.00;2.15;;;8.40;99.90;;;;;;5023525;28;20049;-73
2021/10/23 03:48:57;;;;;;;4.22;1.85;;;8.40;99.90;;;;;;5028509;28;20025;-75
2021/10/23 03:51:23;;;;;;;5.28;2.13;;;8.40;99.90;;;;;;5012760;28;20101;-75
2021/10/23 03:53:48;;;;;;;7.20;2.05;;;8.40;99.90;;;;;;5023202;28;20061;-74
2021/10/23 03:56:14;;;;;;;5.30;1.92;;;8.40;99.90;;;;;;5023703;28;20033;-74
2021/10/23 03:58:39;;;;;;;7.97;2.58;;;8.40;99.90;;;;;;5029296;28;20034;-75
2021/10/23 04:01:05;;;;;;;5.25;1.95;;;8.40;99.90;;;;;;5040244;28;20018;-74
2021/10/23 04:03:30;;;;;;;3.22;2.38;;;8.30;99.90;;;;;;5042112;28;20041;-73
2021/10/23 04:05:56;;;;;;;2.33;2.13;;;8.30;99.90;;;;;;5038225;28;20030;-73
2021/10/23 04:08:22;;;;;;;2.70;1.63;;;8.30;99.90;;;;;;5020842;28;20022;-73
2021/10/23 04:10:47;;;;;;;10.65;3.60;;;8.30;99.90;;;;;;5027708;28;20568;-74
2021/10/23 04:13:14;;;;;;;7.63;2.05;;;8.30;99.90;;;;;;5028023;28;20033;-73
2021/10/23 04:15:40;;;;;;;5.60;2.15;;;8.30;99.90;;;;;;5023727;28;20037;-74
2021/10/23 04:18:05;;;;;;;8.70;2.40;;;8.20;99.90;;;;;;5025369;28;20014;-74
2021/10/23 04:20:31;;;;;;;6.53;3.08;;;8.20;99.90;;;;;;5022858;28;20033;-73
2021/10/23 04:22:57;;;;;;;10.52;3.13;;;8.20;99.90;;;;;;5025536;28;20017;-75
2021/10/23 04:25:23;;;;;;;5.93;2.17;;;8.20;99.90;;;;;;5024194;28;20529;-75
2021/10/23 04:27:49;;;;;;;8.35;2.10;;;8.20;99.90;;;;;;5031189;28;20048;-75
2021/10/23 04:30:15;;;;;;;5.85;2.08;;;8.20;99.90;;;;;;5024455;28;20026;-74
2021/10/23 04:32:40;;;;;;;5.70;1.90;;;8.30;99.90;;;;;;5043782;28;20026;-74
2021/10/23 04:35:06;;;;;;;3.70;2.15;;;8.30;99.90;;;;;;5028501;28;20470;-75
2021/10/23 04:37:32;;;;;;;8.18;2.03;;;8.50;99.90;;;;;;5002405;28;20018;-75
2021/10/23 04:39:58;;;;;;;5.25;1.75;;;8.50;99.90;;;;;;5018617;28;20028;-75
2021/10/23 04:42:23;;;;;;;8.85;2.85;;;8.40;99.90;;;;;;5019096;28;20021;-75
2021/10/23 04:44:49;;;;;;;5.63;2.05;;;8.40;99.90;;;;;;5027182;28;20077;-73
2021/10/23 04:47:15;;;;;;;5.63;2.55;;;8.30;99.90;;;;;;5022345;28;20079;-76
2021/10/23 04:49:40;;;;;;;6.38;3.15;;;8.30;99.90;;;;;;5001931;28;20048;-75
2021/10/23 04:52:06;;;;;;;5.30;1.80;;;8.30;99.90;;;;;;5020480;28;20062;-74
2021/10/23 04:54:32;;;;;;;4.90;1.98;;;8.30;99.90;;;;;;5021116;28;20492;-73
2021/10/23 04:56:57;;;;;;;5.72;2.00;;;8.20;99.90;;;;;;5018482;28;20041;-75
2021/10/23 04:59:23;;;;;;;6.05;2.47;;;8.20;99.90;;;;;;5019329;28;20117;-75
2021/10/23 05:01:48;;;;;;;5.13;2.50;;;8.20;99.90;;;;;;5019509;28;20032;-74
2021/10/23 05:04:14;;;;;;;9.23;2.40;;;8.30;99.90;;;;;;5021776;28;20029;-74
2021/10/23 05:06:40;;;;;;;9.00;2.22;;;8.20;99.90;;;;;;5018161;28;20030;-73
2021/10/23 05:09:06;;;;;;;9.50;2.50;;;8.20;99.90;;;;;;5019024;28;20022;-74
2021/10/23 05:11:31;;;;;;;5.35;2.60;;;8.20;99.90;;;;;;5018804;28;20065;-73
2021/10/23 05:13:57;;;;;;;6.38;2.47;;;8.20;99.90;;;;;;5021470;28;20597;-75
2021/10/23 05:16:22;;;;;;;9.07;2.60;;;8.20;99.90;;;;;;5020118;28;20030;-75
2021/10/23 05:18:50;;;;;;;5.28;2.33;;;8.20;99.90;;;;;;5021571;28;20026;-73
2021/10/23 05:21:18;;;;;;;5.32;2.85;;;8.20;99.90;;;;;;5002492;28;20036;-74
2021/10/23 05:23:45;;;;;;;7.22;2.67;;;8.30;99.90;;;;;;5017459;28;20305;-75
2021/10/23 05:26:11;;;;;;;7.07;2.38;;;8.30;99.90;;;;;;5007410;28;20034;-74
2021/10/23 05:28:36;;;;;;;5.22;2.42;;;8.40;99.90;;;;;;5033730;28;20029;-73
2021/10/23 05:31:02;;;;;;;10.57;2.70;;;8.40;99.90;;;;;;5018827;28;20119;-75
2021/10/23 05:33:27;;;;;;;12.77;1.95;;;8.40;99.90;;;;;;5018791;28;20112;-75
2021/10/23 05:35:53;;;;;;;7.18;2.30;;;8.50;99.90;;;;;;5020163;28;20034;-76
2021/10/23 05:38:18;;;;;;;11.68;2.08;;;8.50;99.90;;;;;;5017241;28;20402;-75
2021/10/23 05:40:44;;;;;;;5.25;1.88;;;8.50;99.90;;;;;;5018484;28;20030;-74
2021/10/23 05:43:10;;;;;;;13.35;2.22;;;8.40;99.90;;;;;;4999604;28;20107;-74
2021/10/23 05:45:35;;;;;;;7.05;2.40;;;8.30;99.90;;;;;;5018719;28;20022;-75
2021/10/23 05:48:01;;;;;;;8.40;2.03;;;8.20;99.90;;;;;;5017818;28;20541;-74
2021/10/23 05:50:26;;;;;;;7.45;2.30;;;8.20;99.90;;;;;;5009465;28;20429;-72
2021/10/23 05:52:52;;;;;;;6.55;2.05;;;8.20;99.90;;;;;;5051961;23;20345;-73
2021/10/23 05:55:17;;;;;;;5.95;2.28;;;8.20;99.90;;;;;;5061336;28;20033;-74
2021/10/23 05:57:43;;;;;;;4.22;1.80;;;8.20;99.90;;;;;;5053795;28;20023;-73
2021/10/23 06:00:10;;;;;;;8.20;2.88;;;8.10;99.90;;;;;;5053780;28;20032;-74
2021/10/23 06:02:38;;;;;;;7.25;2.42;;;8.20;99.90;;;;;;5034131;28;20021;-74
2021/10/23 06:05:04;;;;;;;11.90;2.95;;;8.10;99.90;;;;;;5015815;28;20116;-73
2021/10/23 06:07:33;;;;;;;5.50;2.28;;;8.10;99.90;;;;;;5015867;28;20030;-73
2021/10/23 06:10:00;;;;;;;6.68;2.67;;;8.10;99.90;;;;;;5033679;28;20481;-74
2021/10/23 06:12:26;;;;;;;5.30;2.45;;;8.20;99.90;;;;;;5036391;28;20024;-75
2021/10/23 06:14:52;;;;;;;6.82;3.70;;;8.20;99.90;;;;;;5034029;28;20413;-73
2021/10/23 06:17:19;;;;;;;4.20;2.10;;;8.20;99.90;;;;;;5033929;28;20033;-73
2021/10/23 06:19:45;;;;;;;3.13;1.80;;;8.30;99.90;;;;;;5049597;28;20148;-74
2021/10/23 06:22:10;;;;;;;9.07;2.95;;;8.30;99.90;;;;;;5053261;28;20094;-73
2021/10/23 06:24:36;;;;;;;6.78;3.05;;;8.30;99.90;;;;;;5041835;28;20028;-74
2021/10/23 06:27:02;;;;;;;7.32;2.50;;;8.40;99.90;;;;;;5033001;28;20097;-75
2021/10/23 06:29:28;;;;;;;10.02;2.58;;;8.50;99.90;;;;;;5033724;28;20017;-74
2021/10/23 06:31:54;;;;;;;5.18;2.85;;;8.50;99.90;;;;;;5032626;28;20061;-75
2021/10/23 06:34:19;;;;;;;7.57;2.33;;;8.50;99.90;;;;;;5033033;28;20022;-74
2021/10/23 06:36:45;;;;;;;7.05;2.55;;;8.50;99.90;;;;;;5033227;28;20072;-74
2021/10/23 06:39:10;;;;;;;3.58;1.85;;;8.60;99.90;;;;;;5033342;28;20102;-74
2021/10/23 06:41:36;;;;;;;8.63;1.90;;;8.60;99.90;;;;;;5033349;28;20032;-75
2021/10/23 06:44:03;;;;;;;9.38;2.75;;;8.60;99.90;;;;;;5033580;28;20029;-74
2021/10/23 06:46:29;;;;;;;10.43;2.50;;;8.60;99.90;;;;;;5012017;28;20026;-73
2021/10/23 06:48:55;;;;;;;5.20;2.05;;;8.70;99.90;;;;;;5034809;28;20056;-74
2021/10/23 06:51:21;;;;;;;3.63;1.83;;;8.70;99.90;;;;;;5034779;28;20014;-74
2021/10/23 06:53:47;;;;;;;2.95;2.05;;;8.70;99.90;;;;;;5034889;28;20022;-74
2021/10/23 06:56:12;;;;;;;4.38;1.67;;;8.80;99.90;;;;;;5035268;28;20096;-76
2021/10/23 06:58:38;;;;;;;5.70;2.00;;;8.80;99.90;;;;;;5033156;28;20029;-75
2021/10/23 07:01:05;;;;;;;4.95;1.52;;;8.90;99.90;;;;;;5015056;28;20034;-73
2021/10/23 07:03:30;;;;;;;5.78;2.40;;;8.90;99.90;;;;;;5032554;28;20034;-73
2021/10/23 07:05:56;;;;;;;5.22;2.10;;;9.00;99.90;;;;;;5049880;28;20034;-73
2021/10/23 07:08:22;;;;;;;4.30;1.98;;;9.10;99.90;;;;;;5050678;28;20359;-74
2021/10/23 07:10:47;;;;;;;4.03;1.80;;;9.10;99.90;;;;;;5035619;28;20037;-73
2021/10/23 07:13:13;;;;;;;4.45;1.95;;;9.10;99.90;;;;;;5017354;28;20040;-74
2021/10/23 07:15:39;;;;;;;9.90;2.40;;;9.20;99.90;;;;;;5033419;28;20022;-74
2021/10/23 07:18:05;;;;;;;5.57;1.90;;;9.20;99.90;;;;;;5033489;28;20428;-74
2021/10/23 07:20:32;;;;;;;2.78;1.80;;;9.20;99.90;;;;;;5033207;28;20388;-74
2021/10/23 07:22:58;;;;;;;7.18;4.00;;;9.30;99.90;;;;;;5033492;28;20473;-75
2021/10/23 07:25:24;;;;;;;3.92;2.25;;;9.30;99.90;;;;;;5032303;28;20117;-74
2021/10/23 07:27:50;;;;;;;3.75;1.75;;;9.40;99.90;;;;;;5036499;28;20045;-73
2021/10/23 07:30:15;;;;;;;7.07;1.92;;;9.40;99.90;;;;;;5032649;28;20031;-75
2021/10/23 07:32:41;;;;;;;5.82;1.73;;;9.40;99.90;;;;;;5016030;28;20053;-74
2021/10/23 07:35:09;;;;;;;3.28;1.60;;;9.60;99.90;;;;;;5033316;28;20081;-74
2021/10/23 07:37:34;;;;;;;5.43;2.08;;;9.60;99.90;;;;;;5032379;28;20037;-74
2021/10/23 07:40:01;;;;;;;5.90;1.98;;;9.60;99.90;;;;;;5028857;28;20113;-75
2021/10/23 07:42:27;;;;;;;3.90;2.00;;;9.60;99.90;;;;;;5017603;28;20080;-74
2021/10/23 07:44:53;;;;;;;4.60;1.90;;;9.60;99.90;;;;;;5032561;28;20025;-75
2021/10/23 07:47:19;;;;;;;3.53;1.70;;;9.60;99.90;;;;;;5035102;28;20120;-74
2021/10/23 07:49:46;;;;;;;3.42;2.00;;;9.60;99.90;;;;;;5035966;28;20052;-75
2021/10/23 07:52:11;;;;;;;11.77;2.92;;;9.60;99.90;;;;;;5029694;28;20024;-74
2021/10/23 07:54:37;;;;;;;5.43;2.42;;;9.60;99.90;;;;;;5030190;28;20029;-75
2021/10/23 07:57:04;;;;;;;11.25;2.65;;;9.60;99.90;;;;;;5020521;28;20041;-75
2021/10/23 07:59:31;;;;;;;4.53;2.50;;;9.70;99.90;;;;;;5039914;28;20057;-74
2021/10/23 08:02:02;;;;;;;5.47;2.22;;;9.80;99.90;;;;;;5035454;28;20056;-74
2021/10/23 08:04:28;;;;;;;8.85;2.28;;;9.90;99.90;;;;;;5035829;28;20021;-74
2021/10/23 08:06:55;;;;;;;5.45;2.00;;;10.00;99.90;;;;;;5035434;28;20029;-75
2021/10/23 08:09:20;;;;;;;5.57;1.95;;;10.10;99.90;;;;;;5025325;28;20029;-74
2021/10/23 08:11:46;;;;;;;7.28;1.70;;;10.30;99.90;;;;;;5023866;28;20020;-77
2021/10/23 08:14:12;;;;;;;4.32;2.03;;;10.60;99.90;;;;;;5035467;28;20034;-76
2021/10/23 08:16:38;;;;;;;4.15;1.77;;;10.70;99.90;;;;;;5036367;28;20061;-76
2021/10/23 08:19:03;;;;;;;5.97;1.95;;;10.90;99.90;;;;;;5035809;28;20414;-75
2021/10/23 08:21:30;;;;;;;4.50;2.03;;;11.00;99.90;;;;;;5036384;28;20032;-75
2021/10/23 08:23:55;;;;;;;7.55;2.03;;;11.00;99.90;;;;;;5030903;28;20044;-74
2021/10/23 08:26:21;;;;;;;17.23;3.83;;;10.70;99.90;;;;;;5042079;28;20025;-73
2021/10/23 08:28:46;;;;;;;3.45;1.63;;;10.50;99.90;;;;;;5028340;28;20029;-73
2021/10/23 08:31:12;;;;;;;3.75;1.70;;;10.40;99.90;;;;;;5035838;28;20033;-74
2021/10/23 08:33:38;;;;;;;4.57;2.28;;;10.30;99.90;;;;;;5035015;28;20209;-74
2021/10/23 08:36:04;;;;;;;7.45;1.92;;;10.30;99.90;;;;;;5039209;28;20052;-75
2021/10/23 08:38:29;;;;;;;3.30;2.03;;;10.40;99.90;;;;;;5044332;28;20028;-75
2021/10/23 08:40:56;;;;;;;3.35;1.90;;;10.50;99.90;;;;;;5055007;28;20477;-74
2021/10/23 08:43:25;;;;;;;3.20;1.88;;;10.60;99.90;;;;;;5053463;28;20500;-74
2021/10/23 08:45:55;;;;;;;5.10;1.98;;;10.80;99.90;;;;;;5017974;28;20041;-76
2021/10/23 08:48:22;;;;;;;4.97;1.88;;;11.00;99.90;;;;;;5036080;28;20108;-76
2021/10/23 08:50:48;;;;;;;5.68;2.47;;;11.10;99.90;;;;;;5017343;28;20033;-76
2021/10/23 08:53:14;;;;;;;5.72;2.28;;;11.30;99.90;;;;;;5034981;28;20041;-76
2021/10/23 08:55:40;;;;;;;9.00;2.25;;;11.30;99.90;;;;;;5019727;28;20025;-75
2021/10/23 08:58:09;;;;;;;6.60;2.78;;;11.30;99.90;;;;;;5059645;28;20052;-75
2021/10/23 09:00:35;;;;;;;13.20;9.02;;;11.40;99.90;;;;;;5040771;28;20033;-74
2021/10/23 09:03:00;;;;;;;4.57;3.10;;;11.40;99.90;;;;;;5035216;28;20255;-75
2021/10/23 09:05:26;;;;;;;5.65;2.28;;;11.30;99.90;;;;;;5034387;28;20022;-74
2021/10/23 09:07:52;;;;;;;5.70;2.50;;;11.20;99.90;;;;;;5016857;28;20079;-75
2021/10/23 09:10:23;;;;;;;5.30;1.88;;;11.50;99.90;;;;;;5035087;28;20025;-77
2021/10/23 09:13:05;;;;;;;6.38;1.80;;;11.50;99.90;;;;;;5036194;28;20374;-75
2021/10/23 09:15:36;;;;;;;5.07;1.77;;;11.70;99.90;;;;;;5036724;28;20047;-74
2021/10/23 09:18:02;;;;;;;4.45;2.13;;;12.00;99.90;;;;;;5040386;28;20489;-75
2021/10/23 09:20:28;;;;;;;4.55;2.22;;;12.30;99.90;;;;;;5040150;28;20024;-76
2021/10/23 09:22:54;;;;;;;5.35;2.10;;;12.40;99.90;;;;;;5036477;28;20032;-74
2021/10/23 09:25:29;;;;;;;5.32;2.47;;;12.70;99.90;;;;;;4997624;28;20025;-76
2021/10/23 09:28:05;;;;;;;4.22;2.20;;;13.00;99.90;;;;;;5021351;28;20393;-76
2021/10/23 09:30:36;;;;;;;6.72;2.65;;;12.90;99.90;;;;;;5034195;28;20021;-75
2021/10/23 09:33:33;;;;;;;6.28;2.58;;;12.50;99.90;;;;;;5016408;28;20029;-76
2021/10/23 09:36:03;;;;;;;4.38;2.38;;;12.50;99.90;;;;;;5031123;28;20121;-76
2021/10/23 09:38:31;;;;;;;5.97;2.00;;;12.90;99.90;;;;;;5034408;28;20053;-75
2021/10/23 09:41:10;;;;;;;4.70;2.63;;;13.20;99.90;;;;;;5034171;28;20112;-76
2021/10/23 09:43:36;;;;;;;3.08;2.13;;;13.10;99.90;;;;;;5032959;28;20060;-76
2021/10/23 09:46:11;;;;;;;4.93;2.30;;;13.10;99.90;;;;;;5033760;28;20053;-76
2021/10/23 09:48:51;;;;;;;4.40;1.77;;;13.00;99.90;;;;;;5033557;28;20013;-76
2021/10/23 09:51:30;;;;;;;6.35;3.08;;;12.60;99.90;;;;;;5045900;28;20033;-77
2021/10/23 09:54:06;;;;;;;3.95;2.25;;;12.80;99.90;;;;;;5045127;28;20037;-77
2021/10/23 09:56:38;;;;;;;8.23;2.78;;;12.70;99.90;;;;;;5051458;28;20025;-76
2021/10/23 09:59:09;;;;;;;6.22;2.67;;;13.30;99.90;;;;;;5051720;28;20018;-76
2021/10/23 10:01:42;;;;;;;5.88;2.67;;;13.10;99.90;;;;;;5054765;28;20036;-77
2021/10/23 10:04:10;;;;;;;6.13;2.28;;;13.30;99.90;;;;;;5047483;28;20070;-77
2021/10/23 10:06:43;;;;;;;5.53;2.53;;;13.00;99.90;;;;;;5035916;28;20444;-77
2021/10/23 10:09:13;;;;;;;6.85;2.17;;;12.90;99.90;;;;;;5037168;28;20174;-77
2021/10/23 10:11:39;;;;;;;4.00;2.67;;;12.90;99.90;;;;;;5016033;28;20021;-76
2021/10/23 10:14:11;;;;;;;4.50;2.17;;;12.90;99.90;;;;;;5021966;28;20033;-76
2021/10/23 10:16:39;;;;;;;3.35;2.13;;;12.80;99.90;;;;;;5035360;28;20403;-77
2021/10/23 10:19:04;;;;;;;4.75;2.45;;;12.90;99.90;;;;;;5035614;28;20505;-79
2021/10/23 10:21:37;;;;;;;5.50;2.47;;;12.30;99.90;;;;;;5035320;28;20040;-76
2021/10/23 10:24:25;;;;;;;7.18;3.38;;;12.30;99.90;;;;;;5034094;28;20044;-76
2021/10/23 10:27:06;;;;;;;6.75;3.38;;;12.30;99.90;;;;;;5011362;28;20041;-76
2021/10/23 10:32:42;;;;;;;4.47;2.72;;;11.70;99.90;;;;;;5019793;28;20032;-75
2021/10/23 10:38:25;;;;;;;7.97;3.38;;;12.20;99.90;;;;;;5031277;28;20021;-75
2021/10/23 10:44:09;;;;;;;8.55;3.50;;;12.40;99.90;;;;;;5032663;28;20054;-76
2021/10/23 10:47:00;;;;;;;3.72;2.47;;;12.30;99.90;;;;;;5031781;28;20108;-75
2021/10/23 10:49:55;;;;;;;7.53;2.95;;;12.40;99.90;;;;;;5015494;28;20389;-75
2021/10/23 10:52:39;;;;;;;5.55;2.95;;;12.60;99.90;;;;;;5027838;28;20038;-78
2021/10/23 10:55:16;;;;;;;10.23;3.50;;;12.50;99.90;;;;;;5041159;28;20033;-75
2021/10/23 10:58:01;;;;;;;7.10;3.35;;;12.40;99.90;;;;;;5035910;28;20032;-76
2021/10/23 11:00:45;;;;;;;6.45;2.58;;;12.50;99.90;;;;;;5039455;28;20116;-75
2021/10/23 11:03:35;;;;;;;6.15;2.45;;;12.60;99.90;;;;;;5032949;28;20036;-76
2021/10/23 11:06:34;;;;;;;7.00;2.67;;;12.60;99.90;;;;;;5036737;28;20049;-75
2021/10/23 11:09:12;;;;;;;4.15;2.22;;;12.60;99.90;;;;;;5028407;28;20021;-75
2021/10/23 11:11:50;;;;;;;4.32;2.17;;;12.90;99.90;;;;;;5033401;28;20497;-76
2021/10/23 11:14:21;;;;;;;5.78;2.67;;;12.80;99.90;;;;;;5033780;28;20029;-76
2021/10/23 11:16:53;;;;;;;12.05;2.30;;;12.90;99.90;;;;;;5037504;28;20025;-77
2021/10/23 11:19:38;;;;;;;5.85;1.85;;;13.00;99.90;;;;;;5037059;28;20035;-76
2021/10/23 11:22:26;;;;;;;5.13;1.77;;;13.10;99.90;;;;;;5037589;28;20036;-75
2021/10/23 11:25:08;;;;;;;5.43;2.38;;;13.10;99.90;;;;;;5049338;28;20021;-75
2021/10/23 11:27:43;;;;;;;7.10;2.25;;;13.40;99.90;;;;;;5037121;28;20030;-77
2021/10/23 11:30:17;;;;;;;4.95;1.83;;;12.90;99.90;;;;;;5056584;28;20021;-75
2021/10/23 11:32:53;;;;;;;4.72;1.83;;;13.00;99.90;;;;;;5031896;28;20018;-79
2021/10/23 11:35:29;;;;;;;4.50;2.03;;;13.60;99.90;;;;;;5057056;28;20026;-78
2021/10/23 11:37:55;;;;;;;4.55;1.88;;;13.90;99.90;;;;;;5050939;28;20055;-75
2021/10/23 11:40:20;;;;;;;2.78;2.08;;;14.00;99.90;;;;;;5046011;28;20057;-75
2021/10/23 11:42:47;;;;;;;4.15;2.03;;;14.40;99.90;;;;;;5044960;28;20057;-75
2021/10/23 11:45:18;;;;;;;5.00;1.75;;;14.70;99.90;;;;;;5054425;28;20052;-75
2021/10/23 11:47:44;;;;;;;8.63;2.40;;;14.80;99.90;;;;;;5023150;28;20034;-75
2021/10/23 11:50:33;;;;;;;3.50;2.08;;;14.80;99.90;;;;;;5028243;28;20037;-75
2021/10/23 11:53:00;;;;;;;3.30;2.05;;;14.60;99.90;;;;;;5074458;23;20036;-80
2021/10/23 11:56:05;;;;;;;4.80;2.47;;;14.50;99.90;;;;;;5040649;28;20045;-81
2021/10/23 11:58:32;;;;;;;3.45;2.33;;;14.00;99.90;;;;;;5041792;28;20512;-77
2021/10/23 12:01:07;;;;;;;2.90;2.30;;;14.10;99.90;;;;;;5059778;28;20508;-79
2021/10/23 12:03:41;;;;;;;3.35;2.20;;;13.80;99.90;;;;;;5038160;28;20026;-81
2021/10/23 12:06:18;;;;;;;5.60;1.58;;;13.80;99.90;;;;;;5023998;28;20555;-81
2021/10/23 12:08:43;;;;;;;4.70;2.60;;;13.80;99.90;;;;;;5043689;28;20013;-80
2021/10/23 12:11:17;;;;;;;4.60;2.03;;;13.70;99.90;;;;;;5033236;28;20026;-77
2021/10/23 12:14:14;;;;;;;5.45;2.05;;;13.50;99.90;;;;;;5049420;28;20018;-77
2021/10/23 12:16:47;;;;;;;4.38;2.00;;;13.50;99.90;;;;;;5044008;28;20017;-77
2021/10/23 12:19:34;;;;;;;5.05;1.80;;;13.60;99.90;;;;;;5025861;28;20520;-79
2021/10/23 12:22:05;;;;;;;2.92;1.33;;;13.50;99.90;;;;;;5046675;28;20029;-79
2021/10/23 12:24:52;;;;;;;2.17;1.30;;;13.20;99.90;;;;;;5032363;28;20497;-79
2021/10/23 12:27:21;;;;;;;3.20;1.20;;;13.30;99.90;;;;;;5044084;28;20090;-78
2021/10/23 12:29:47;;;;;;;3.13;1.23;;;13.60;99.30;;;;;;5028085;28;20048;-78
2021/10/23 12:32:20;;;;;;;6.35;1.60;;;13.60;99.10;;;;;;5028916;28;20025;-76
2021/10/23 12:34:51;;;;;;;2.42;1.40;;;13.60;99.50;;;;;;5031743;28;20022;-77
2021/10/23 12:37:31;;;;;;;3.35;1.33;;;13.70;99.10;;;;;;5021909;28;20076;-76
2021/10/23 12:40:23;;;;;;;3.38;1.70;;;13.60;98.90;;;;;;5053068;28;20060;-75
2021/10/23 12:42:51;;;;;;;;;;;13.60;98.60;;;;;;5050696;28;20017;-75
2021/10/23 12:45:22;;;;;;;2.13;1.08;;;13.60;97.80;;;;;;5050154;28;19935;-77
2021/10/23 12:47:48;;;;;;;2.75;1.17;;;13.60;97.60;;;;;;5039223;28;20037;-77
2021/10/23 12:50:14;;;;;;;4.35;1.80;;;13.60;97.90;;;;;;5038148;28;20026;-78
2021/10/23 12:52:42;;;;;;;3.17;1.50;;;13.70;98.00;;;;;;5046747;28;20022;-75
2021/10/23 12:55:09;;;;;;;3.10;1.50;;;13.70;97.30;;;;;;5041261;28;20036;-75
2021/10/23 12:57:36;;;;;;;4.10;1.65;;;13.70;97.40;;;;;;5040760;28;20048;-76
2021/10/23 13:00:02;;;;;;;4.60;1.80;;;13.70;97.90;;;;;;5038628;28;20053;-75
2021/10/23 13:02:28;;;;;;;3.95;1.75;;;13.60;97.90;;;;;;5059044;28;20056;-73
2021/10/23 13:04:54;;;;;;;5.07;1.90;;;13.50;98.50;;;;;;5050025;28;20038;-76
2021/10/23 13:07:19;;;;;;;6.07;1.98;;;13.50;98.60;;;;;;5046439;28;20072;-76